sensor_id;sensor_type;location;lat;lon;timestamp;pressure;altitude;pressure_sealevel;temperature;humidity
64340;BME280;63709;53.258;-8.814;2023-01-30T00:02:06;102647.31;;;10.76;100.00
64340;BME280;63709;53.258;-8.814;2023-01-30T00:04:31;102648.75;;;10.83;100.00
64340;BME280;63709;53.258;-8.814;2023-01-30T00:06:58;102648.63;;;10.86;100.00
64340;BME280;63709;53.258;-8.814;2023-01-30T00:09:24;102655.56;;;10.90;100.00
64340;BME280;63709;53.258;-8.814;2023-01-30T00:11:50;102649.16;;;10.93;100.00
64340;BME280;63709;53.258;-8.814;2023-01-30T00:14:16;102655.38;;;10.94;100.00
64340;BME280;63709;53.258;-8.814;2023-01-30T00:16:42;102644.56;;;10.97;100.00
64340;BME280;63709;53.258;-8.814;2023-01-30T00:19:08;102642.09;;;10.92;100.00
64340;BME280;63709;53.258;-8.814;2023-01-30T00:21:35;102641.88;;;10.97;100.00
64340;BME280;63709;53.258;-8.814;2023-01-30T00:24:00;102634.59;;;11.00;100.00
64340;BME280;63709;53.258;-8.814;2023-01-30T00:26:27;102640.25;;;10.94;100.00
64340;BME280;63709;53.258;-8.814;2023-01-30T00:28:52;102637.03;;;10.86;100.00
64340;BME280;63709;53.258;-8.814;2023-01-30T00:31:19;102643.41;;;10.83;100.00
64340;BME280;63709;53.258;-8.814;2023-01-30T00:33:44;102648.31;;;10.74;100.00
64340;BME280;63709;53.258;-8.814;2023-01-30T00:36:10;102640.50;;;10.69;100.00
64340;BME280;63709;53.258;-8.814;2023-01-30T00:38:37;102643.75;;;10.57;100.00
64340;BME280;63709;53.258;-8.814;2023-01-30T00:41:02;102642.13;;;10.53;100.00
64340;BME280;63709;53.258;-8.814;2023-01-30T00:43:28;102647.09;;;10.41;100.00
64340;BME280;63709;53.258;-8.814;2023-01-30T00:49:06;102657.53;;;10.27;100.00
64340;BME280;63709;53.258;-8.814;2023-01-30T00:51:31;102656.78;;;10.24;100.00
64340;BME280;63709;53.258;-8.814;2023-01-30T00:53:57;102650.53;;;10.23;100.00
64340;BME280;63709;53.258;-8.814;2023-01-30T00:56:23;102655.84;;;10.25;100.00
64340;BME280;63709;53.258;-8.814;2023-01-30T00:58:49;102654.09;;;10.24;100.00
64340;BME280;63709;53.258;-8.814;2023-01-30T01:01:15;102653.28;;;10.22;100.00
64340;BME280;63709;53.258;-8.814;2023-01-30T01:03:41;102659.28;;;10.28;100.00
64340;BME280;63709;53.258;-8.814;2023-01-30T01:06:07;102656.31;;;10.34;100.00
64340;BME280;63709;53.258;-8.814;2023-01-30T01:08:33;102663.44;;;10.34;100.00
64340;BME280;63709;53.258;-8.814;2023-01-30T01:10:59;102666.94;;;10.36;100.00
64340;BME280;63709;53.258;-8.814;2023-01-30T01:13:26;102661.13;;;10.47;100.00
64340;BME280;63709;53.258;-8.814;2023-01-30T01:15:52;102666.34;;;10.50;100.00
64340;BME280;63709;53.258;-8.814;2023-01-30T01:18:18;102678.25;;;10.61;100.00
64340;BME280;63709;53.258;-8.814;2023-01-30T01:20:43;102670.84;;;10.68;100.00
64340;BME280;63709;53.258;-8.814;2023-01-30T01:25:40;102677.28;;;10.83;100.00
64340;BME280;63709;53.258;-8.814;2023-01-30T01:28:07;102679.06;;;10.82;100.00
64340;BME280;63709;53.258;-8.814;2023-01-30T01:30:33;102671.59;;;10.90;100.00
64340;BME280;63709;53.258;-8.814;2023-01-30T01:32:59;102672.72;;;10.85;100.00
64340;BME280;63709;53.258;-8.814;2023-01-30T01:35:24;102679.38;;;10.95;100.00
64340;BME280;63709;53.258;-8.814;2023-01-30T01:37:54;102678.38;;;10.98;100.00
64340;BME280;63709;53.258;-8.814;2023-01-30T01:40:20;102685.72;;;10.93;100.00
64340;BME280;63709;53.258;-8.814;2023-01-30T01:43:16;102690.94;;;10.96;100.00
64340;BME280;63709;53.258;-8.814;2023-01-30T01:45:42;102681.81;;;11.00;100.00
64340;BME280;63709;53.258;-8.814;2023-01-30T01:48:14;102684.50;;;11.00;100.00
64340;BME280;63709;53.258;-8.814;2023-01-30T01:51:04;102690.47;;;11.05;100.00
64340;BME280;63709;53.258;-8.814;2023-01-30T01:53:31;102688.69;;;11.05;100.00
64340;BME280;63709;53.258;-8.814;2023-01-30T01:55:58;102697.72;;;11.03;100.00
64340;BME280;63709;53.258;-8.814;2023-01-30T01:59:09;102687.25;;;10.98;100.00
64340;BME280;63709;53.258;-8.814;2023-01-30T02:01:14;102706.69;;;11.02;100.00
64340;BME280;63709;53.258;-8.814;2023-01-30T02:03:41;102702.44;;;10.98;100.00
64340;BME280;63709;53.258;-8.814;2023-01-30T02:06:09;102702.56;;;10.95;100.00
64340;BME280;63709;53.258;-8.814;2023-01-30T02:08:40;102705.97;;;10.98;100.00
64340;BME280;63709;53.258;-8.814;2023-01-30T02:11:11;102701.38;;;11.00;100.00
64340;BME280;63709;53.258;-8.814;2023-01-30T02:13:38;102708.63;;;10.98;100.00
64340;BME280;63709;53.258;-8.814;2023-01-30T02:16:05;102706.50;;;11.05;100.00
64340;BME280;63709;53.258;-8.814;2023-01-30T02:18:31;102712.94;;;11.01;100.00
64340;BME280;63709;53.258;-8.814;2023-01-30T02:29:02;102716.50;;;11.01;100.00
64340;BME280;63709;53.258;-8.814;2023-01-30T02:34:21;102717.88;;;11.10;100.00
64340;BME280;63709;53.258;-8.814;2023-01-30T02:36:53;102726.47;;;11.17;100.00
64340;BME280;63709;53.258;-8.814;2023-01-30T02:47:39;102724.59;;;11.19;100.00
64340;BME280;63709;53.258;-8.814;2023-01-30T02:50:12;102730.97;;;11.16;100.00
64340;BME280;63709;53.258;-8.814;2023-01-30T02:52:41;102738.19;;;11.14;100.00
64340;BME280;63709;53.258;-8.814;2023-01-30T02:55:17;102738.31;;;11.11;100.00
64340;BME280;63709;53.258;-8.814;2023-01-30T02:57:43;102728.69;;;11.07;100.00
64340;BME280;63709;53.258;-8.814;2023-01-30T03:00:09;102722.41;;;11.08;100.00
64340;BME280;63709;53.258;-8.814;2023-01-30T03:07:45;102726.63;;;11.13;100.00
64340;BME280;63709;53.258;-8.814;2023-01-30T03:13:09;102718.47;;;11.17;100.00
64340;BME280;63709;53.258;-8.814;2023-01-30T03:15:43;102718.28;;;11.20;100.00
64340;BME280;63709;53.258;-8.814;2023-01-30T03:18:10;102719.38;;;11.15;100.00
64340;BME280;63709;53.258;-8.814;2023-01-30T03:20:36;102727.13;;;11.22;100.00
64340;BME280;63709;53.258;-8.814;2023-01-30T03:23:02;102727.22;;;11.20;100.00
64340;BME280;63709;53.258;-8.814;2023-01-30T03:25:28;102722.72;;;11.21;100.00
64340;BME280;63709;53.258;-8.814;2023-01-30T03:27:54;102722.94;;;11.16;100.00
64340;BME280;63709;53.258;-8.814;2023-01-30T03:30:20;102722.59;;;11.24;100.00
64340;BME280;63709;53.258;-8.814;2023-01-30T03:32:47;102724.53;;;11.20;100.00
64340;BME280;63709;53.258;-8.814;2023-01-30T03:35:20;102730.59;;;11.24;100.00
64340;BME280;63709;53.258;-8.814;2023-01-30T03:37:46;102728.94;;;11.21;100.00
64340;BME280;63709;53.258;-8.814;2023-01-30T03:40:13;102722.50;;;11.25;100.00
64340;BME280;63709;53.258;-8.814;2023-01-30T03:42:40;102727.75;;;11.27;100.00
64340;BME280;63709;53.258;-8.814;2023-01-30T03:45:06;102731.38;;;11.26;100.00
64340;BME280;63709;53.258;-8.814;2023-01-30T03:47:32;102735.06;;;11.23;100.00
64340;BME280;63709;53.258;-8.814;2023-01-30T03:49:58;102736.00;;;11.22;100.00
64340;BME280;63709;53.258;-8.814;2023-01-30T03:52:24;102743.97;;;11.24;100.00
64340;BME280;63709;53.258;-8.814;2023-01-30T03:54:50;102748.28;;;11.26;100.00
64340;BME280;63709;53.258;-8.814;2023-01-30T03:57:16;102750.19;;;11.24;100.00
64340;BME280;63709;53.258;-8.814;2023-01-30T03:59:42;102748.41;;;11.23;100.00
64340;BME280;63709;53.258;-8.814;2023-01-30T04:02:08;102752.03;;;11.22;100.00
64340;BME280;63709;53.258;-8.814;2023-01-30T04:04:34;102747.13;;;11.13;100.00
64340;BME280;63709;53.258;-8.814;2023-01-30T04:07:00;102752.25;;;11.18;100.00
64340;BME280;63709;53.258;-8.814;2023-01-30T04:09:26;102754.94;;;11.18;100.00
64340;BME280;63709;53.258;-8.814;2023-01-30T04:11:52;102752.34;;;11.16;100.00
64340;BME280;63709;53.258;-8.814;2023-01-30T04:14:17;102748.00;;;11.13;100.00
64340;BME280;63709;53.258;-8.814;2023-01-30T04:16:43;102752.75;;;11.07;100.00
64340;BME280;63709;53.258;-8.814;2023-01-30T04:19:09;102749.81;;;11.13;100.00
64340;BME280;63709;53.258;-8.814;2023-01-30T04:21:35;102746.09;;;11.15;100.00
64340;BME280;63709;53.258;-8.814;2023-01-30T04:24:03;102747.91;;;11.15;100.00
64340;BME280;63709;53.258;-8.814;2023-01-30T04:26:28;102736.50;;;11.11;100.00
64340;BME280;63709;53.258;-8.814;2023-01-30T04:28:55;102750.94;;;11.07;100.00
64340;BME280;63709;53.258;-8.814;2023-01-30T04:31:20;102763.09;;;11.14;100.00
64340;BME280;63709;53.258;-8.814;2023-01-30T04:33:47;102758.56;;;11.17;100.00
64340;BME280;63709;53.258;-8.814;2023-01-30T04:36:13;102760.28;;;11.18;100.00
64340;BME280;63709;53.258;-8.814;2023-01-30T04:38:39;102760.16;;;11.21;100.00
64340;BME280;63709;53.258;-8.814;2023-01-30T04:41:06;102761.22;;;11.17;100.00
64340;BME280;63709;53.258;-8.814;2023-01-30T04:43:32;102764.75;;;11.17;100.00
64340;BME280;63709;53.258;-8.814;2023-01-30T04:45:57;102765.03;;;11.11;100.00
64340;BME280;63709;53.258;-8.814;2023-01-30T04:50:52;102755.16;;;11.13;100.00
64340;BME280;63709;53.258;-8.814;2023-01-30T04:53:18;102767.66;;;11.12;100.00
64340;BME280;63709;53.258;-8.814;2023-01-30T04:55:47;102776.47;;;11.14;100.00
64340;BME280;63709;53.258;-8.814;2023-01-30T04:58:13;102770.50;;;11.08;100.00
64340;BME280;63709;53.258;-8.814;2023-01-30T05:00:40;102776.53;;;11.13;100.00
64340;BME280;63709;53.258;-8.814;2023-01-30T05:03:07;102762.22;;;11.14;100.00
64340;BME280;63709;53.258;-8.814;2023-01-30T05:05:33;102767.44;;;11.17;100.00
64340;BME280;63709;53.258;-8.814;2023-01-30T05:07:59;102773.56;;;11.19;100.00
64340;BME280;63709;53.258;-8.814;2023-01-30T05:10:25;102783.41;;;11.19;100.00
64340;BME280;63709;53.258;-8.814;2023-01-30T05:15:25;102772.09;;;11.12;100.00
64340;BME280;63709;53.258;-8.814;2023-01-30T05:17:51;102778.25;;;11.14;100.00
64340;BME280;63709;53.258;-8.814;2023-01-30T05:20:16;102772.31;;;11.07;100.00
64340;BME280;63709;53.258;-8.814;2023-01-30T05:22:42;102768.72;;;11.08;100.00
64340;BME280;63709;53.258;-8.814;2023-01-30T05:25:08;102779.41;;;11.08;100.00
64340;BME280;63709;53.258;-8.814;2023-01-30T05:27:34;102781.28;;;11.06;100.00
64340;BME280;63709;53.258;-8.814;2023-01-30T05:29:59;102775.28;;;11.01;100.00
64340;BME280;63709;53.258;-8.814;2023-01-30T05:32:27;102775.22;;;11.03;100.00
64340;BME280;63709;53.258;-8.814;2023-01-30T05:34:56;102780.03;;;10.95;100.00
64340;BME280;63709;53.258;-8.814;2023-01-30T05:37:22;102787.84;;;10.99;100.00
64340;BME280;63709;53.258;-8.814;2023-01-30T05:39:48;102793.06;;;11.02;100.00
64340;BME280;63709;53.258;-8.814;2023-01-30T05:42:15;102796.72;;;11.00;100.00
64340;BME280;63709;53.258;-8.814;2023-01-30T05:44:40;102791.47;;;10.98;100.00
64340;BME280;63709;53.258;-8.814;2023-01-30T05:47:06;102790.88;;;10.92;100.00
64340;BME280;63709;53.258;-8.814;2023-01-30T05:49:32;102788.78;;;10.98;100.00
64340;BME280;63709;53.258;-8.814;2023-01-30T05:51:58;102780.78;;;10.98;100.00
64340;BME280;63709;53.258;-8.814;2023-01-30T05:54:25;102778.16;;;10.97;100.00
64340;BME280;63709;53.258;-8.814;2023-01-30T05:56:50;102768.19;;;11.00;100.00
64340;BME280;63709;53.258;-8.814;2023-01-30T05:59:18;102769.28;;;10.96;100.00
64340;BME280;63709;53.258;-8.814;2023-01-30T06:01:44;102770.34;;;10.92;100.00
64340;BME280;63709;53.258;-8.814;2023-01-30T06:04:11;102767.09;;;10.85;100.00
64340;BME280;63709;53.258;-8.814;2023-01-30T06:06:36;102764.16;;;10.92;100.00
64340;BME280;63709;53.258;-8.814;2023-01-30T06:09:03;102758.16;;;10.86;100.00
64340;BME280;63709;53.258;-8.814;2023-01-30T06:11:31;102769.09;;;10.80;100.00
64340;BME280;63709;53.258;-8.814;2023-01-30T06:13:56;102771.03;;;10.77;100.00
64340;BME280;63709;53.258;-8.814;2023-01-30T06:16:27;102773.72;;;10.77;100.00
64340;BME280;63709;53.258;-8.814;2023-01-30T06:18:53;102784.59;;;10.72;100.00
64340;BME280;63709;53.258;-8.814;2023-01-30T06:21:18;102791.59;;;10.75;100.00
64340;BME280;63709;53.258;-8.814;2023-01-30T06:23:45;102787.00;;;10.78;100.00
64340;BME280;63709;53.258;-8.814;2023-01-30T06:26:11;102789.88;;;10.74;100.00
64340;BME280;63709;53.258;-8.814;2023-01-30T06:28:39;102786.41;;;10.72;100.00
64340;BME280;63709;53.258;-8.814;2023-01-30T06:31:05;102783.31;;;10.81;100.00
64340;BME280;63709;53.258;-8.814;2023-01-30T06:33:31;102787.81;;;10.80;100.00
64340;BME280;63709;53.258;-8.814;2023-01-30T06:35:57;102790.53;;;10.79;100.00
64340;BME280;63709;53.258;-8.814;2023-01-30T06:38:23;102793.00;;;10.83;100.00
64340;BME280;63709;53.258;-8.814;2023-01-30T06:40:50;102790.41;;;10.82;100.00
64340;BME280;63709;53.258;-8.814;2023-01-30T06:43:15;102800.59;;;10.93;100.00
64340;BME280;63709;53.258;-8.814;2023-01-30T06:45:41;102805.91;;;10.94;100.00
64340;BME280;63709;53.258;-8.814;2023-01-30T06:48:07;102802.69;;;10.86;100.00
64340;BME280;63709;53.258;-8.814;2023-01-30T06:50:33;102800.09;;;10.84;100.00
64340;BME280;63709;53.258;-8.814;2023-01-30T06:53:00;102807.28;;;10.82;100.00
64340;BME280;63709;53.258;-8.814;2023-01-30T06:55:27;102813.38;;;10.86;100.00
64340;BME280;63709;53.258;-8.814;2023-01-30T07:00:29;102815.25;;;10.84;100.00
64340;BME280;63709;53.258;-8.814;2023-01-30T07:03:00;102803.56;;;10.86;100.00
64340;BME280;63709;53.258;-8.814;2023-01-30T07:05:26;102808.91;;;10.86;100.00
64340;BME280;63709;53.258;-8.814;2023-01-30T07:07:54;102809.63;;;10.90;100.00
64340;BME280;63709;53.258;-8.814;2023-01-30T07:10:20;102806.75;;;10.95;100.00
64340;BME280;63709;53.258;-8.814;2023-01-30T07:12:46;102807.88;;;10.89;100.00
64340;BME280;63709;53.258;-8.814;2023-01-30T07:15:17;102810.44;;;10.92;100.00
64340;BME280;63709;53.258;-8.814;2023-01-30T07:17:43;102810.22;;;10.97;100.00
64340;BME280;63709;53.258;-8.814;2023-01-30T07:20:08;102811.09;;;10.97;100.00
64340;BME280;63709;53.258;-8.814;2023-01-30T07:25:04;102801.13;;;11.01;100.00
64340;BME280;63709;53.258;-8.814;2023-01-30T07:27:30;102792.84;;;11.07;100.00
64340;BME280;63709;53.258;-8.814;2023-01-30T07:29:57;102796.47;;;11.06;100.00
64340;BME280;63709;53.258;-8.814;2023-01-30T07:32:22;102806.56;;;10.99;100.00
64340;BME280;63709;53.258;-8.814;2023-01-30T07:34:47;102797.59;;;11.00;100.00
64340;BME280;63709;53.258;-8.814;2023-01-30T07:37:13;102794.19;;;10.97;100.00
64340;BME280;63709;53.258;-8.814;2023-01-30T07:39:40;102798.44;;;11.01;100.00
64340;BME280;63709;53.258;-8.814;2023-01-30T07:42:06;102792.34;;;10.99;100.00
64340;BME280;63709;53.258;-8.814;2023-01-30T07:44:32;102798.75;;;10.95;100.00
64340;BME280;63709;53.258;-8.814;2023-01-30T07:47:01;102803.56;;;10.86;100.00
64340;BME280;63709;53.258;-8.814;2023-01-30T07:49:27;102811.31;;;10.72;100.00
64340;BME280;63709;53.258;-8.814;2023-01-30T07:51:53;102818.53;;;10.70;100.00
64340;BME280;63709;53.258;-8.814;2023-01-30T07:57:05;102820.91;;;10.56;100.00
64340;BME280;63709;53.258;-8.814;2023-01-30T08:02:03;102832.66;;;10.52;100.00
64340;BME280;63709;53.258;-8.814;2023-01-30T08:06:59;102839.16;;;10.46;100.00
64340;BME280;63709;53.258;-8.814;2023-01-30T08:09:27;102841.72;;;10.48;100.00
64340;BME280;63709;53.258;-8.814;2023-01-30T08:11:54;102843.63;;;10.46;100.00
64340;BME280;63709;53.258;-8.814;2023-01-30T08:14:27;102845.22;;;10.50;100.00
64340;BME280;63709;53.258;-8.814;2023-01-30T08:16:55;102837.13;;;10.51;100.00
64340;BME280;63709;53.258;-8.814;2023-01-30T08:21:51;102849.38;;;10.57;100.00
64340;BME280;63709;53.258;-8.814;2023-01-30T08:24:18;102851.09;;;10.58;100.00
64340;BME280;63709;53.258;-8.814;2023-01-30T08:26:43;102854.44;;;10.63;100.00
64340;BME280;63709;53.258;-8.814;2023-01-30T08:29:09;102840.81;;;10.69;100.00
64340;BME280;63709;53.258;-8.814;2023-01-30T08:31:37;102847.91;;;10.70;100.00
64340;BME280;63709;53.258;-8.814;2023-01-30T08:34:02;102843.22;;;10.75;100.00
64340;BME280;63709;53.258;-8.814;2023-01-30T08:36:28;102854.84;;;10.74;100.00
64340;BME280;63709;53.258;-8.814;2023-01-30T08:38:53;102852.88;;;10.79;100.00
64340;BME280;63709;53.258;-8.814;2023-01-30T08:41:19;102860.94;;;10.78;100.00
64340;BME280;63709;53.258;-8.814;2023-01-30T08:43:44;102857.13;;;10.83;100.00
64340;BME280;63709;53.258;-8.814;2023-01-30T08:46:11;102857.91;;;10.85;100.00
64340;BME280;63709;53.258;-8.814;2023-01-30T08:48:46;102861.63;;;10.83;100.00
64340;BME280;63709;53.258;-8.814;2023-01-30T08:51:13;102860.47;;;10.88;100.00
64340;BME280;63709;53.258;-8.814;2023-01-30T08:53:39;102867.41;;;10.93;100.00
64340;BME280;63709;53.258;-8.814;2023-01-30T08:56:05;102854.88;;;10.95;100.00
64340;BME280;63709;53.258;-8.814;2023-01-30T08:58:31;102860.06;;;10.98;100.00
64340;BME280;63709;53.258;-8.814;2023-01-30T09:00:56;102876.84;;;11.01;100.00
64340;BME280;63709;53.258;-8.814;2023-01-30T09:03:23;102884.88;;;11.01;100.00
64340;BME280;63709;53.258;-8.814;2023-01-30T09:08:24;102878.97;;;11.13;100.00
64340;BME280;63709;53.258;-8.814;2023-01-30T09:10:50;102876.94;;;11.19;100.00
64340;BME280;63709;53.258;-8.814;2023-01-30T09:13:16;102879.41;;;11.23;100.00
64340;BME280;63709;53.258;-8.814;2023-01-30T09:15:42;102883.75;;;11.26;100.00
64340;BME280;63709;53.258;-8.814;2023-01-30T09:18:08;102892.44;;;11.31;100.00
64340;BME280;63709;53.258;-8.814;2023-01-30T09:20:43;102901.19;;;11.34;100.00
64340;BME280;63709;53.258;-8.814;2023-01-30T09:23:09;102903.09;;;11.32;100.00
64340;BME280;63709;53.258;-8.814;2023-01-30T09:25:44;102900.47;;;11.31;100.00
64340;BME280;63709;53.258;-8.814;2023-01-30T09:28:10;102892.16;;;11.37;100.00
64340;BME280;63709;53.258;-8.814;2023-01-30T09:30:36;102899.31;;;11.36;100.00
64340;BME280;63709;53.258;-8.814;2023-01-30T09:33:03;102892.84;;;11.42;100.00
64340;BME280;63709;53.258;-8.814;2023-01-30T09:35:31;102897.03;;;11.48;100.00
64340;BME280;63709;53.258;-8.814;2023-01-30T09:37:59;102895.19;;;11.50;100.00
64340;BME280;63709;53.258;-8.814;2023-01-30T09:40:27;102895.91;;;11.53;100.00
64340;BME280;63709;53.258;-8.814;2023-01-30T09:53:11;102901.53;;;11.66;100.00
64340;BME280;63709;53.258;-8.814;2023-01-30T09:55:40;102905.75;;;11.72;100.00
64340;BME280;63709;53.258;-8.814;2023-01-30T09:58:32;102911.16;;;11.70;100.00
64340;BME280;63709;53.258;-8.814;2023-01-30T10:00:57;102913.06;;;11.68;100.00
64340;BME280;63709;53.258;-8.814;2023-01-30T10:03:27;102908.44;;;11.72;100.00
64340;BME280;63709;53.258;-8.814;2023-01-30T10:05:56;102917.97;;;11.77;100.00
64340;BME280;63709;53.258;-8.814;2023-01-30T10:11:13;102909.63;;;11.85;100.00
64340;BME280;63709;53.258;-8.814;2023-01-30T10:21:26;102907.28;;;12.15;100.00
64340;BME280;63709;53.258;-8.814;2023-01-30T10:26:28;102908.31;;;12.49;100.00
64340;BME280;63709;53.258;-8.814;2023-01-30T10:29:02;102906.53;;;12.67;100.00
64340;BME280;63709;53.258;-8.814;2023-01-30T10:31:41;102908.91;;;12.90;100.00
64340;BME280;63709;53.258;-8.814;2023-01-30T10:34:24;102906.00;;;13.12;100.00
64340;BME280;63709;53.258;-8.814;2023-01-30T10:36:57;102908.66;;;13.12;100.00
64340;BME280;63709;53.258;-8.814;2023-01-30T10:41:52;102916.41;;;13.18;100.00
64340;BME280;63709;53.258;-8.814;2023-01-30T10:44:19;102908.38;;;13.18;100.00
64340;BME280;63709;53.258;-8.814;2023-01-30T10:49:38;102923.03;;;13.11;100.00
64340;BME280;63709;53.258;-8.814;2023-01-30T10:52:13;102920.09;;;13.16;100.00
64340;BME280;63709;53.258;-8.814;2023-01-30T10:54:54;102912.00;;;13.17;100.00
64340;BME280;63709;53.258;-8.814;2023-01-30T10:57:34;102916.56;;;13.15;100.00
64340;BME280;63709;53.258;-8.814;2023-01-30T11:00:07;102914.59;;;13.19;100.00
64340;BME280;63709;53.258;-8.814;2023-01-30T11:02:46;102911.03;;;13.18;100.00
64340;BME280;63709;53.258;-8.814;2023-01-30T11:05:26;102913.81;;;13.17;100.00
64340;BME280;63709;53.258;-8.814;2023-01-30T11:07:55;102919.00;;;13.20;100.00
64340;BME280;63709;53.258;-8.814;2023-01-30T11:10:22;102924.75;;;13.12;100.00
64340;BME280;63709;53.258;-8.814;2023-01-30T11:12:57;102923.59;;;13.00;100.00
64340;BME280;63709;53.258;-8.814;2023-01-30T11:15:37;102933.28;;;13.03;100.00
64340;BME280;63709;53.258;-8.814;2023-01-30T11:18:03;102931.47;;;13.03;100.00
64340;BME280;63709;53.258;-8.814;2023-01-30T11:20:30;102911.13;;;12.99;100.00
64340;BME280;63709;53.258;-8.814;2023-01-30T11:23:04;102931.72;;;12.99;100.00
64340;BME280;63709;53.258;-8.814;2023-01-30T11:25:30;102927.53;;;12.93;100.00
64340;BME280;63709;53.258;-8.814;2023-01-30T11:28:04;102931.78;;;12.97;100.00
64340;BME280;63709;53.258;-8.814;2023-01-30T11:30:34;102934.41;;;12.99;100.00
64340;BME280;63709;53.258;-8.814;2023-01-30T11:33:05;102929.66;;;13.04;100.00
64340;BME280;63709;53.258;-8.814;2023-01-30T11:35:37;102936.13;;;13.00;100.00
64340;BME280;63709;53.258;-8.814;2023-01-30T11:38:38;102940.84;;;13.12;100.00
64340;BME280;63709;53.258;-8.814;2023-01-30T11:41:06;102940.47;;;13.02;100.00
64340;BME280;63709;53.258;-8.814;2023-01-30T11:43:39;102932.59;;;13.17;100.00
64340;BME280;63709;53.258;-8.814;2023-01-30T11:46:06;102930.78;;;13.17;100.00
64340;BME280;63709;53.258;-8.814;2023-01-30T11:48:33;102939.75;;;13.16;100.00
64340;BME280;63709;53.258;-8.814;2023-01-30T11:51:00;102928.09;;;13.00;100.00
64340;BME280;63709;53.258;-8.814;2023-01-30T11:53:32;102923.34;;;13.05;100.00
64340;BME280;63709;53.258;-8.814;2023-01-30T11:56:08;102917.53;;;13.14;100.00
64340;BME280;63709;53.258;-8.814;2023-01-30T11:58:34;102906.19;;;13.09;100.00
64340;BME280;63709;53.258;-8.814;2023-01-30T12:01:01;102904.25;;;13.11;100.00
64340;BME280;63709;53.258;-8.814;2023-01-30T12:03:28;102904.97;;;13.15;100.00
64340;BME280;63709;53.258;-8.814;2023-01-30T12:05:56;102901.38;;;12.98;100.00
64340;BME280;63709;53.258;-8.814;2023-01-30T12:08:25;102903.72;;;13.04;100.00
64340;BME280;63709;53.258;-8.814;2023-01-30T12:10:55;102891.88;;;13.08;100.00
64340;BME280;63709;53.258;-8.814;2023-01-30T12:15:50;102893.78;;;13.06;100.00
64340;BME280;63709;53.258;-8.814;2023-01-30T12:18:23;102887.06;;;13.15;100.00
64340;BME280;63709;53.258;-8.814;2023-01-30T12:20:57;102898.28;;;13.06;100.00
64340;BME280;63709;53.258;-8.814;2023-01-30T12:25:55;102893.28;;;13.16;100.00
64340;BME280;63709;53.258;-8.814;2023-01-30T12:28:34;102892.28;;;13.18;100.00
64340;BME280;63709;53.258;-8.814;2023-01-30T12:31:19;102890.38;;;13.20;100.00
64340;BME280;63709;53.258;-8.814;2023-01-30T12:33:47;102895.66;;;13.22;100.00
64340;BME280;63709;53.258;-8.814;2023-01-30T12:41:47;102892.91;;;13.23;100.00
64340;BME280;63709;53.258;-8.814;2023-01-30T12:46:53;102885.50;;;13.28;100.00
64340;BME280;63709;53.258;-8.814;2023-01-30T12:49:31;102876.88;;;13.22;100.00
64340;BME280;63709;53.258;-8.814;2023-01-30T12:57:03;102879.97;;;13.14;100.00
64340;BME280;63709;53.258;-8.814;2023-01-30T12:59:41;102874.19;;;13.22;100.00
64340;BME280;63709;53.258;-8.814;2023-01-30T13:07:25;102877.00;;;13.03;100.00
64340;BME280;63709;53.258;-8.814;2023-01-30T13:10:05;102876.84;;;13.06;100.00
64340;BME280;63709;53.258;-8.814;2023-01-30T13:12:56;102867.06;;;12.88;100.00
64340;BME280;63709;53.258;-8.814;2023-01-30T13:22:55;102863.22;;;12.76;100.00
64340;BME280;63709;53.258;-8.814;2023-01-30T13:28:03;102857.06;;;12.74;100.00
64340;BME280;63709;53.258;-8.814;2023-01-30T13:30:37;102848.91;;;12.75;100.00
64340;BME280;63709;53.258;-8.814;2023-01-30T13:33:04;102846.09;;;12.78;100.00
64340;BME280;63709;53.258;-8.814;2023-01-30T13:35:34;102847.19;;;12.74;100.00
64340;BME280;63709;53.258;-8.814;2023-01-30T13:38:02;102853.91;;;12.83;100.00
64340;BME280;63709;53.258;-8.814;2023-01-30T13:45:47;102848.91;;;12.93;100.00
64340;BME280;63709;53.258;-8.814;2023-01-30T13:50:50;102835.13;;;13.00;100.00
64340;BME280;63709;53.258;-8.814;2023-01-30T13:53:31;102833.53;;;12.96;100.00
64340;BME280;63709;53.258;-8.814;2023-01-30T14:01:18;102842.59;;;12.94;100.00
64340;BME280;63709;53.258;-8.814;2023-01-30T14:03:45;102848.38;;;13.03;100.00
64340;BME280;63709;53.258;-8.814;2023-01-30T14:14:01;102826.44;;;13.13;100.00
64340;BME280;63709;53.258;-8.814;2023-01-30T14:16:49;102815.47;;;13.17;100.00
64340;BME280;63709;53.258;-8.814;2023-01-30T14:21:57;102807.25;;;13.20;100.00
64340;BME280;63709;53.258;-8.814;2023-01-30T14:24:23;102801.91;;;13.20;100.00
64340;BME280;63709;53.258;-8.814;2023-01-30T14:32:22;102796.94;;;13.13;100.00
64340;BME280;63709;53.258;-8.814;2023-01-30T14:51:41;102774.50;;;12.98;100.00
64340;BME280;63709;53.258;-8.814;2023-01-30T14:53:48;102768.31;;;13.13;100.00
64340;BME280;63709;53.258;-8.814;2023-01-30T14:56:16;102765.78;;;13.10;100.00
64340;BME280;63709;53.258;-8.814;2023-01-30T14:58:53;102768.31;;;13.13;100.00
64340;BME280;63709;53.258;-8.814;2023-01-30T15:01:21;102764.41;;;13.19;100.00
64340;BME280;63709;53.258;-8.814;2023-01-30T15:03:48;102764.56;;;13.16;100.00
64340;BME280;63709;53.258;-8.814;2023-01-30T15:06:14;102765.28;;;13.19;100.00
64340;BME280;63709;53.258;-8.814;2023-01-30T15:08:40;102757.38;;;13.16;100.00
64340;BME280;63709;53.258;-8.814;2023-01-30T15:19:06;102759.56;;;13.10;100.00
64340;BME280;63709;53.258;-8.814;2023-01-30T15:31:54;102755.06;;;13.10;100.00
64340;BME280;63709;53.258;-8.814;2023-01-30T15:34:20;102757.91;;;13.07;100.00
64340;BME280;63709;53.258;-8.814;2023-01-30T15:36:46;102758.72;;;13.09;100.00
64340;BME280;63709;53.258;-8.814;2023-01-30T15:39:23;102751.44;;;13.11;100.00